Time;durP1;ratioP1;P1;durP2;ratioP2;P2;SDS_P1;SDS_P2;PMS_P1;PMS_P2;Temp;Humidity;BMP_temperature;BMP_pressure;BME280_temperature;BME280_humidity;BME280_pressure;Samples;Min_cycle;Max_cycle;Signal;HPM_P1;HPM_P2
2022/04/13 00:00:16;;;;;;;16.30;6.65;;;;;;;6.58;60.18;100285.78;4369753;32;34485;-79
2022/04/13 00:03:02;;;;;;;10.85;5.32;;;;;;;6.30;60.96;100290.59;4350207;32;35339;-78
2022/04/13 00:05:50;;;;;;;12.37;5.60;;;;;;;6.67;59.93;100290.44;4365086;32;34116;-79
2022/04/13 00:08:36;;;;;;;10.38;5.85;;;;;;;6.42;60.06;100290.38;4367161;32;34732;-79
2022/04/13 00:11:23;;;;;;;9.57;5.82;;;;;;;6.31;60.92;100303.94;4361859;32;34612;-79
2022/04/13 00:14:09;;;;;;;11.40;5.68;;;;;;;6.57;60.10;100304.00;4373195;32;34295;-79
2022/04/13 00:16:55;;;;;;;12.10;5.90;;;;;;;6.50;60.31;100298.81;4367368;32;34166;-79
2022/04/13 00:19:41;;;;;;;12.15;5.97;;;;;;;5.36;63.20;100303.91;4369307;32;34708;-79
2022/04/13 00:22:28;;;;;;;12.40;6.05;;;;;;;5.88;62.66;100307.78;4362982;32;34774;-79
2022/04/13 00:25:14;;;;;;;13.48;6.20;;;;;;;6.19;61.38;100308.78;4352358;32;35536;-79
2022/04/13 00:28:00;;;;;;;11.32;6.12;;;;;;;5.55;63.51;100303.47;4357785;32;35153;-79
2022/04/13 00:30:46;;;;;;;10.23;5.82;;;;;;;5.52;64.89;100302.13;4361578;32;35632;-79
2022/04/13 00:33:33;;;;;;;11.07;6.53;;;;;;;5.95;62.94;100297.53;4362444;32;35803;-79
2022/04/13 00:36:20;;;;;;;11.85;6.25;;;;;;;5.63;64.32;100303.00;4355668;32;34477;-79
2022/04/13 00:39:05;;;;;;;11.90;5.62;;;;;;;5.57;64.13;100307.56;4361625;32;34138;-79
2022/04/13 00:42:00;;;;;;;12.30;6.15;;;;;;;5.63;63.98;100305.72;4361428;32;34267;-79
2022/04/13 00:44:47;;;;;;;11.82;6.25;;;;;;;5.34;65.34;100297.91;4353835;32;34981;-78
2022/04/13 00:47:38;;;;;;;11.50;5.85;;;;;;;5.84;63.70;100312.94;4344317;32;35015;-79
2022/04/13 00:50:24;;;;;;;12.98;5.95;;;;;;;6.06;62.09;100314.69;4360448;32;34020;-79
2022/04/13 00:53:13;;;;;;;10.75;5.75;;;;;;;5.92;62.39;100314.34;4364009;32;34610;-79
2022/04/13 00:55:59;;;;;;;11.77;5.15;;;;;;;5.97;62.68;100305.41;4377520;32;34816;-78
2022/04/13 00:58:46;;;;;;;10.75;5.40;;;;;;;6.00;62.72;100310.31;4355178;32;35428;-79
2022/04/13 01:01:34;;;;;;;9.43;5.50;;;;;;;5.79;62.74;100309.38;4360148;32;34880;-78
2022/04/13 01:04:21;;;;;;;11.35;5.62;;;;;;;6.06;62.14;100317.41;4358735;32;34585;-78
2022/04/13 01:07:09;;;;;;;9.55;5.57;;;;;;;5.22;64.57;100307.31;4363229;32;34908;-78
2022/04/13 01:09:56;;;;;;;11.50;5.90;;;;;;;5.10;65.40;100310.22;4368411;32;34625;-78
2022/04/13 01:12:42;;;;;;;12.93;6.30;;;;;;;5.63;63.76;100316.59;4356856;32;33756;-79
2022/04/13 01:15:28;;;;;;;11.40;5.40;;;;;;;5.85;62.32;100320.00;4369205;32;35290;-79
2022/04/13 01:18:14;;;;;;;11.77;6.12;;;;;;;5.57;63.21;100309.47;4353139;32;35004;-79
2022/04/13 01:21:01;;;;;;;9.88;5.25;;;;;;;5.30;64.73;100307.66;4363361;32;34662;-78
2022/04/13 01:23:49;;;;;;;10.45;4.90;;;;;;;5.72;63.82;100315.03;4347441;32;34134;-78
2022/04/13 01:26:35;;;;;;;11.85;5.65;;;;;;;5.71;62.77;100313.38;4347639;32;34684;-78
2022/04/13 01:29:21;;;;;;;10.20;5.68;;;;;;;5.63;63.48;100313.88;4368056;32;35934;-78
2022/04/13 01:32:09;;;;;;;9.63;5.28;;;;;;;5.38;63.60;100319.97;4348839;32;34429;-78
2022/04/13 01:34:56;;;;;;;12.13;5.75;;;;;;;5.32;64.43;100316.38;4366608;32;34305;-78
2022/04/13 01:37:42;;;;;;;12.98;5.87;;;;;;;5.53;64.09;100325.50;4356864;32;34248;-78
2022/04/13 01:40:28;;;;;;;9.88;5.37;;;;;;;5.34;64.29;100319.63;4355730;32;34976;-78
2022/04/13 01:43:15;;;;;;;11.02;5.50;;;;;;;5.26;64.65;100328.25;4360138;32;34622;-78
2022/04/13 01:46:01;;;;;;;12.10;6.00;;;;;;;4.72;66.84;100331.00;4365518;32;35149;-78
2022/04/13 01:48:47;;;;;;;11.07;6.22;;;;;;;4.20;68.78;100332.31;4347454;32;34222;-78
2022/04/13 01:51:34;;;;;;;10.38;5.12;;;;;;;5.07;66.04;100332.47;4369541;32;34743;-78
2022/04/13 01:54:20;;;;;;;11.32;5.47;;;;;;;5.07;65.44;100338.72;4364578;32;34329;-78
2022/04/13 01:57:06;;;;;;;11.70;5.10;;;;;;;5.08;65.58;100331.38;4367381;32;34113;-79
2022/04/13 01:59:53;;;;;;;11.27;5.68;;;;;;;5.23;65.01;100338.84;4371272;32;34551;-79
2022/04/13 02:02:39;;;;;;;12.70;6.30;;;;;;;4.91;65.69;100332.31;4337640;32;34484;-78
2022/04/13 02:05:26;;;;;;;11.95;6.43;;;;;;;4.62;67.09;100339.88;4350562;32;35363;-78
2022/04/13 02:08:12;;;;;;;12.10;6.32;;;;;;;4.93;66.63;100335.59;4346055;32;34520;-78
2022/04/13 02:10:59;;;;;;;16.45;6.90;;;;;;;4.48;67.89;100339.44;4346903;32;34536;-79
2022/04/13 02:13:45;;;;;;;11.93;6.22;;;;;;;4.40;69.16;100342.59;4357582;32;34923;-79
2022/04/13 02:16:31;;;;;;;13.50;6.05;;;;;;;5.07;66.46;100346.03;4360261;32;34340;-78
2022/04/13 02:19:19;;;;;;;10.25;5.68;;;;;;;5.03;65.36;100340.28;4347779;32;34973;-78
2022/04/13 02:22:05;;;;;;;12.48;6.45;;;;;;;4.50;67.40;100342.72;4347341;32;34804;-79
2022/04/13 02:24:51;;;;;;;12.70;6.43;;;;;;;4.04;70.34;100344.88;4346216;32;35093;-78
2022/04/13 02:27:38;;;;;;;12.13;5.90;;;;;;;4.71;67.41;100348.38;4358107;32;34801;-78
2022/04/13 02:30:23;;;;;;;11.48;5.43;;;;;;;4.77;66.42;100343.81;4357083;32;33870;-78
2022/04/13 02:33:10;;;;;;;12.18;6.22;;;;;;;4.46;67.13;100343.47;4360596;32;35635;-79
2022/04/13 02:35:56;;;;;;;16.12;6.00;;;;;;;4.16;69.18;100347.47;4368617;32;34951;-78
2022/04/13 02:38:42;;;;;;;11.65;5.60;;;;;;;4.80;67.09;100346.84;4363185;32;34224;-78
2022/04/13 02:41:28;;;;;;;12.93;5.80;;;;;;;5.00;65.71;100348.94;4359908;32;34255;-78
2022/04/13 02:44:14;;;;;;;10.38;5.90;;;;;;;5.19;64.36;100343.97;4365536;32;34696;-78
2022/04/13 02:47:00;;;;;;;14.63;5.43;;;;;;;4.89;65.02;100345.31;4357483;32;35094;-78
2022/04/13 02:49:48;;;;;;;11.10;5.57;;;;;;;4.97;65.29;100350.28;4369490;32;35505;-78
2022/04/13 02:52:34;;;;;;;10.07;5.50;;;;;;;4.88;65.03;100346.38;4363148;32;34140;-78
2022/04/13 02:55:20;;;;;;;10.50;5.93;;;;;;;4.94;65.31;100348.06;4347268;32;35626;-78
2022/04/13 02:58:07;;;;;;;12.18;5.95;;;;;;;4.53;66.13;100346.00;4355402;32;35265;-78
2022/04/13 03:00:54;;;;;;;14.38;5.95;;;;;;;3.94;69.09;100343.91;4360899;32;34996;-78
2022/04/13 03:03:40;;;;;;;11.20;6.22;;;;;;;3.43;71.39;100353.97;4366163;32;34176;-78
2022/04/13 03:06:27;;;;;;;10.32;5.53;;;;;;;4.15;69.56;100355.84;4363146;32;34619;-78
2022/04/13 03:09:13;;;;;;;12.02;6.40;;;;;;;4.49;67.56;100362.78;4361318;32;34743;-78
2022/04/13 03:11:59;;;;;;;10.82;5.65;;;;;;;4.57;67.07;100352.56;4365425;32;33672;-78
2022/04/13 03:14:46;;;;;;;9.90;5.45;;;;;;;4.30;67.54;100353.34;4364525;32;34762;-78
2022/04/13 03:17:32;;;;;;;9.98;6.05;;;;;;;4.62;66.96;100361.59;4347932;32;34420;-78
2022/04/13 03:20:19;;;;;;;14.18;6.40;;;;;;;4.53;65.76;100367.72;4367866;32;34778;-78
2022/04/13 03:23:05;;;;;;;19.12;6.32;;;;;;;4.41;67.05;100363.25;4363807;32;35766;-78
2022/04/13 03:25:52;;;;;;;11.40;5.97;;;;;;;3.90;68.66;100362.56;4356531;32;35294;-78
2022/04/13 03:28:38;;;;;;;10.55;5.65;;;;;;;3.57;70.07;100360.69;4370174;32;34433;-78
2022/04/13 03:31:25;;;;;;;10.48;5.93;;;;;;;3.12;71.97;100361.56;4357508;32;34974;-78
2022/04/13 03:34:11;;;;;;;10.85;5.57;;;;;;;2.85;72.17;100372.19;4362917;32;34346;-78
2022/04/13 03:36:57;;;;;;;10.38;5.12;;;;;;;3.74;70.34;100376.94;4355398;32;34115;-78
2022/04/13 03:39:44;;;;;;;11.12;5.53;;;;;;;4.20;67.39;100373.00;4365815;32;34139;-78
2022/04/13 03:42:37;;;;;;;11.57;5.68;;;;;;;3.67;68.51;100377.13;4367543;32;33910;-78
2022/04/13 03:45:23;;;;;;;11.38;5.18;;;;;;;3.96;68.26;100377.81;4367626;32;34712;-78
2022/04/13 03:48:09;;;;;;;11.35;5.87;;;;;;;3.86;67.33;100377.66;4373829;32;33046;-78
2022/04/13 03:50:57;;;;;;;10.90;5.32;;;;;;;3.49;69.02;100380.06;4367828;32;34744;-78
2022/04/13 03:53:43;;;;;;;12.15;5.55;;;;;;;4.17;66.86;100383.53;4359157;32;35772;-78
2022/04/13 03:56:30;;;;;;;9.95;4.90;;;;;;;3.60;68.11;100387.28;4368922;32;35395;-78
2022/04/13 03:59:16;;;;;;;11.57;4.93;;;;;;;4.04;67.49;100388.25;4366926;32;34285;-78
2022/04/13 04:02:03;;;;;;;12.93;4.93;;;;;;;3.60;68.58;100392.72;4371980;32;34260;-78
2022/04/13 04:04:50;;;;;;;11.82;5.35;;;;;;;3.77;68.05;100395.44;4357208;32;36095;-78
2022/04/13 04:07:37;;;;;;;12.73;4.87;;;;;;;3.97;68.19;100390.31;4361603;32;34715;-78
2022/04/13 04:10:23;;;;;;;10.27;5.30;;;;;;;3.99;67.34;100390.88;4347410;32;35220;-79
2022/04/13 04:13:09;;;;;;;8.73;4.78;;;;;;;4.08;67.55;100393.19;4364984;32;34560;-79
2022/04/13 04:15:56;;;;;;;8.15;4.97;;;;;;;4.12;67.52;100389.69;4352737;32;33853;-77
2022/04/13 04:18:42;;;;;;;10.20;4.70;;;;;;;3.90;67.73;100400.50;4365234;32;34918;-76
2022/04/13 04:21:29;;;;;;;12.00;5.70;;;;;;;3.93;68.46;100397.31;4368325;32;33963;-77
2022/04/13 04:24:14;;;;;;;12.63;5.45;;;;;;;4.00;68.88;100403.37;4377571;32;34689;-76
2022/04/13 04:27:01;;;;;;;10.68;5.50;;;;;;;4.06;68.05;100407.78;4361438;32;35904;-76
2022/04/13 04:29:47;;;;;;;11.60;5.75;;;;;;;3.85;69.08;100403.16;4356179;32;34595;-76
2022/04/13 04:32:33;;;;;;;12.15;5.78;;;;;;;4.00;69.05;100408.78;4346310;32;36124;-76
2022/04/13 04:35:19;;;;;;;15.15;6.05;;;;;;;4.45;67.26;100418.66;4355771;32;35062;-76
2022/04/13 04:38:06;;;;;;;11.32;5.57;;;;;;;4.32;67.06;100421.72;4357176;32;34932;-76
2022/04/13 04:40:54;;;;;;;11.23;5.97;;;;;;;4.14;68.19;100422.81;4363925;32;35133;-76
2022/04/13 04:43:40;;;;;;;13.85;5.93;;;;;;;4.40;67.99;100423.19;4358746;32;34170;-76
2022/04/13 04:46:26;;;;;;;12.35;5.85;;;;;;;4.34;67.03;100419.56;4361925;32;34732;-76
2022/04/13 04:49:14;;;;;;;13.25;5.90;;;;;;;4.54;66.97;100419.03;4357143;32;35436;-76
2022/04/13 04:52:00;;;;;;;11.70;5.72;;;;;;;4.24;67.31;100414.00;4343499;32;34670;-78
2022/04/13 04:54:46;;;;;;;13.27;6.68;;;;;;;4.61;66.95;100426.97;4359375;32;33955;-75
2022/04/13 04:57:32;;;;;;;15.00;6.00;;;;;;;4.87;65.11;100423.50;4356962;32;34597;-77
2022/04/13 05:00:20;;;;;;;12.07;5.97;;;;;;;4.57;66.04;100423.94;4365026;32;34052;-77
2022/04/13 05:03:08;;;;;;;14.25;5.82;;;;;;;4.71;66.29;100429.81;4358210;32;35142;-79
2022/04/13 05:05:54;;;;;;;13.27;6.65;;;;;;;5.10;64.37;100433.28;4361350;32;34768;-77
2022/04/13 05:08:41;;;;;;;13.00;6.05;;;;;;;5.00;64.72;100433.16;4356906;32;34343;-77
2022/04/13 05:11:27;;;;;;;9.75;5.82;;;;;;;5.04;64.98;100426.16;4347106;32;34607;-76
2022/04/13 05:14:16;;;;;;;12.85;6.60;;;;;;;5.09;64.85;100434.31;4364886;32;34421;-77
2022/04/13 05:17:03;;;;;;;16.12;6.78;;;;;;;4.79;64.11;100432.09;4362846;32;35152;-78
2022/04/13 05:19:51;;;;;;;14.75;6.57;;;;;;;5.19;63.42;100430.91;4364821;32;35532;-75
2022/04/13 05:22:37;;;;;;;12.60;7.07;;;;;;;4.14;65.62;100435.56;4358838;32;35513;-75
2022/04/13 05:25:23;;;;;;;12.10;6.40;;;;;;;4.44;64.42;100436.00;4358547;32;35052;-74
2022/04/13 05:28:10;;;;;;;11.23;6.00;;;;;;;4.79;64.63;100440.25;4372019;32;35074;-74
2022/04/13 05:30:56;;;;;;;13.55;7.10;;;;;;;5.22;63.88;100451.31;4364469;32;34844;-74
2022/04/13 05:33:43;;;;;;;17.80;6.93;;;;;;;5.54;62.85;100443.22;4358445;32;36090;-76
2022/04/13 05:36:29;;;;;;;17.12;8.13;;;;;;;5.72;61.89;100451.00;4358766;32;34715;-76
2022/04/13 05:39:15;;;;;;;12.13;6.57;;;;;;;5.69;61.92;100451.50;4357444;32;34138;-76
2022/04/13 05:42:02;;;;;;;14.82;6.32;;;;;;;6.28;60.32;100461.50;4357437;32;34692;-76
2022/04/13 05:44:48;;;;;;;12.75;6.37;;;;;;;6.49;58.70;100463.28;4345588;32;34781;-75
2022/04/13 05:47:34;;;;;;;13.75;7.32;;;;;;;6.38;58.11;100464.28;4357194;32;34383;-75
2022/04/13 05:50:22;;;;;;;15.18;7.12;;;;;;;6.92;56.52;100468.66;4354975;32;34770;-76
2022/04/13 05:53:08;;;;;;;14.65;6.93;;;;;;;7.22;55.72;100466.00;4361505;32;35222;-78
2022/04/13 05:55:58;;;;;;;13.98;6.95;;;;;;;7.34;55.03;100465.78;4365951;32;34995;-77
2022/04/13 05:58:44;;;;;;;12.23;6.97;;;;;;;7.65;54.75;100457.63;4356371;32;35454;-78
2022/04/13 06:01:30;;;;;;;16.95;6.95;;;;;;;7.78;54.76;100469.94;4347427;32;34278;-76
2022/04/13 06:04:17;;;;;;;15.35;8.35;;;;;;;8.02;53.69;100460.09;4357420;32;35731;-75
2022/04/13 06:07:03;;;;;;;12.80;6.30;;;;;;;8.02;53.75;100471.00;4369095;32;35618;-79
2022/04/13 06:09:50;;;;;;;12.15;6.60;;;;;;;8.49;52.38;100464.44;4369134;32;34759;-77
2022/04/13 06:12:36;;;;;;;12.40;6.62;;;;;;;8.34;52.22;100467.19;4360129;32;35374;-75
2022/04/13 06:15:22;;;;;;;13.38;6.70;;;;;;;8.63;51.32;100477.53;4360045;32;35330;-76
2022/04/13 06:18:08;;;;;;;12.37;6.40;;;;;;;8.66;50.88;100485.16;4369820;32;34691;-77
2022/04/13 06:20:55;;;;;;;12.50;6.55;;;;;;;8.87;51.10;100485.91;4359975;32;35162;-76
2022/04/13 06:23:41;;;;;;;11.30;6.72;;;;;;;8.68;50.96;100482.97;4360793;32;35170;-76
2022/04/13 06:26:27;;;;;;;13.13;6.95;;;;;;;9.06;49.83;100478.72;4367867;32;34632;-77
2022/04/13 06:29:13;;;;;;;13.00;6.15;;;;;;;9.07;48.41;100488.56;4359857;32;35003;-76
2022/04/13 06:31:59;;;;;;;12.23;6.95;;;;;;;9.25;48.41;100487.13;4359504;32;34583;-77
2022/04/13 06:34:45;;;;;;;10.77;6.20;;;;;;;9.46;47.54;100494.09;4348609;32;34239;-76
2022/04/13 06:37:31;;;;;;;11.93;6.43;;;;;;;9.52;47.80;100496.81;4360452;32;35555;-77
2022/04/13 06:40:18;;;;;;;12.30;6.70;;;;;;;9.70;45.49;100493.41;4360655;32;35800;-76
2022/04/13 06:43:04;;;;;;;13.00;6.80;;;;;;;9.84;45.81;100494.41;4369980;32;35622;-76
2022/04/13 06:45:53;;;;;;;12.98;6.75;;;;;;;9.70;45.94;100498.88;4369592;32;34214;-76
2022/04/13 06:48:40;;;;;;;14.13;6.78;;;;;;;9.92;45.88;100506.66;4348624;32;35513;-76
2022/04/13 06:51:25;;;;;;;11.25;6.15;;;;;;;10.17;45.34;100491.97;4341121;32;36032;-76
2022/04/13 06:54:11;;;;;;;12.65;6.25;;;;;;;10.60;45.09;100486.62;4360007;32;34597;-76
2022/04/13 06:56:58;;;;;;;14.45;6.85;;;;;;;10.62;44.59;100494.59;4360063;32;34384;-77
2022/04/13 06:59:44;;;;;;;13.05;7.03;;;;;;;10.25;45.94;100499.56;4359465;32;34697;-79
2022/04/13 07:02:30;;;;;;;15.75;7.47;;;;;;;10.76;43.81;100504.56;4348869;32;35966;-76
2022/04/13 07:05:16;;;;;;;13.27;6.87;;;;;;;11.02;42.52;100498.78;4366924;32;34852;-77
2022/04/13 07:08:03;;;;;;;11.98;6.90;;;;;;;10.93;42.66;100497.78;4359418;32;35239;-78
2022/04/13 07:10:49;;;;;;;13.57;6.90;;;;;;;10.75;44.01;100497.41;4357164;32;35600;-78
2022/04/13 07:13:36;;;;;;;11.63;6.30;;;;;;;10.93;41.92;100498.63;4378229;32;35019;-77
2022/04/13 07:16:22;;;;;;;11.65;6.47;;;;;;;11.10;41.91;100498.13;4361616;32;35120;-78
2022/04/13 07:19:08;;;;;;;13.02;6.60;;;;;;;11.73;39.90;100505.22;4367459;32;34004;-78
2022/04/13 07:21:56;;;;;;;11.18;5.97;;;;;;;11.50;40.35;100501.44;4367016;32;34625;-79
2022/04/13 07:24:47;;;;;;;15.15;6.60;;;;;;;11.75;40.09;100510.41;4353743;32;35325;-76
2022/04/13 07:27:33;;;;;;;10.98;5.53;;;;;;;11.60;40.13;100512.25;4360142;32;34690;-76
2022/04/13 07:30:19;;;;;;;13.30;6.65;;;;;;;11.87;40.30;100505.31;4359139;32;34257;-79
2022/04/13 07:33:06;;;;;;;11.73;6.12;;;;;;;12.02;37.99;100502.31;4353920;32;33399;-79
2022/04/13 07:35:52;;;;;;;11.73;6.15;;;;;;;11.94;40.27;100511.25;4359598;32;34951;-79
2022/04/13 07:38:38;;;;;;;12.25;5.10;;;;;;;12.19;38.91;100509.22;4338478;32;34123;-79
2022/04/13 07:41:24;;;;;;;10.52;5.90;;;;;;;12.32;36.25;100512.00;4359100;32;35167;-77
2022/04/13 07:44:12;;;;;;;9.65;5.35;;;;;;;12.36;37.12;100514.97;4358257;32;34632;-78
2022/04/13 07:46:57;;;;;;;10.00;5.25;;;;;;;12.87;39.00;100515.97;4367815;32;35657;-78
2022/04/13 07:49:44;;;;;;;11.23;6.03;;;;;;;12.80;37.15;100510.84;4367485;32;34125;-77
2022/04/13 07:52:36;;;;;;;11.50;5.90;;;;;;;12.81;37.22;100512.50;4359236;32;34216;-79
2022/04/13 07:55:23;;;;;;;13.68;5.85;;;;;;;12.79;36.28;100512.78;4347666;32;35512;-78
2022/04/13 07:58:08;;;;;;;10.05;5.40;;;;;;;12.99;35.83;100517.06;4348496;32;34626;-78
2022/04/13 08:00:55;;;;;;;11.30;5.62;;;;;;;13.03;35.94;100512.59;4357651;32;35684;-76
2022/04/13 08:03:41;;;;;;;10.15;5.70;;;;;;;13.27;36.54;100514.34;4368619;32;34427;-77
2022/04/13 08:06:27;;;;;;;8.48;4.43;;;;;;;13.59;36.30;100510.59;4367283;32;35520;-77
2022/04/13 08:09:13;;;;;;;11.85;4.87;;;;;;;13.48;33.68;100515.50;4368779;32;35063;-77
2022/04/13 08:11:59;;;;;;;8.07;4.55;;;;;;;13.99;35.00;100518.22;4372106;32;35490;-78
2022/04/13 08:14:46;;;;;;;7.78;4.28;;;;;;;14.21;32.41;100514.69;4374891;32;34203;-80
2022/04/13 08:17:32;;;;;;;8.52;4.35;;;;;;;14.02;33.81;100518.41;4364469;32;34452;-78
2022/04/13 08:20:18;;;;;;;9.25;4.43;;;;;;;14.32;32.23;100516.84;4359312;32;35759;-78
2022/04/13 08:23:04;;;;;;;7.65;3.97;;;;;;;14.38;32.67;100510.06;4367216;32;34567;-79
2022/04/13 08:25:51;;;;;;;7.62;3.30;;;;;;;14.57;30.61;100518.19;4359354;32;33700;-78
2022/04/13 08:28:37;;;;;;;8.75;3.72;;;;;;;14.20;31.31;100519.34;4357020;32;34686;-79
2022/04/13 08:31:23;;;;;;;13.82;3.65;;;;;;;14.26;31.53;100518.13;4367240;32;35751;-77
2022/04/13 08:34:09;;;;;;;7.53;4.25;;;;;;;14.78;31.71;100512.09;4359508;32;34668;-77
2022/04/13 08:36:55;;;;;;;6.43;3.42;;;;;;;14.53;31.18;100513.59;4359966;32;33701;-78
2022/04/13 08:39:42;;;;;;;11.38;4.18;;;;;;;14.76;30.75;100509.66;4359195;32;34585;-78
2022/04/13 08:42:49;;;;;;;9.32;4.05;;;;;;;15.07;31.03;100511.56;4360116;32;35291;-77
2022/04/13 08:45:39;;;;;;;7.28;3.85;;;;;;;15.39;31.49;100515.03;4359837;32;34644;-77
2022/04/13 08:48:26;;;;;;;9.00;4.27;;;;;;;15.37;30.79;100512.63;4357088;32;34152;-78
2022/04/13 08:51:16;;;;;;;6.85;3.42;;;;;;;15.48;30.06;100519.47;4350004;32;34200;-78
2022/04/13 08:54:11;;;;;;;6.97;3.80;;;;;;;15.33;29.91;100517.12;4359434;32;35025;-77
2022/04/13 08:56:57;;;;;;;7.62;4.00;;;;;;;15.34;29.32;100513.25;4357927;32;34356;-77
2022/04/13 09:00:07;;;;;;;7.90;3.80;;;;;;;15.54;29.98;100517.38;4359651;32;33939;-78
2022/04/13 09:02:59;;;;;;;6.32;3.87;;;;;;;15.34;29.82;100512.44;4365444;32;34605;-78
2022/04/13 09:05:49;;;;;;;9.65;4.47;;;;;;;15.42;30.16;100503.34;4350460;32;35560;-79
2022/04/13 09:08:42;;;;;;;8.07;4.12;;;;;;;15.26;31.13;100512.09;4356077;32;33685;-78
2022/04/13 09:11:30;;;;;;;9.93;4.07;;;;;;;15.63;29.14;100512.66;4360294;32;35179;-79
2022/04/13 09:14:16;;;;;;;6.57;3.80;;;;;;;15.65;29.47;100513.16;4359238;32;34718;-78
2022/04/13 09:17:04;;;;;;;5.78;3.53;;;;;;;15.73;29.14;100508.78;4359357;32;35853;-77
2022/04/13 09:19:50;;;;;;;7.68;4.00;;;;;;;16.02;29.34;100508.13;4357715;32;34591;-78
2022/04/13 09:22:37;;;;;;;9.57;4.00;;;;;;;15.89;28.72;100500.84;4357968;32;34147;-78
2022/04/13 09:25:24;;;;;;;9.77;3.17;;;;;;;16.02;28.02;100510.06;4367537;32;35278;-77
2022/04/13 09:28:10;;;;;;;8.60;3.90;;;;;;;16.08;27.58;100508.75;4347908;32;35026;-79
2022/04/13 09:30:57;;;;;;;7.50;3.83;;;;;;;16.16;28.60;100502.41;4358928;32;35068;-79
2022/04/13 09:33:44;;;;;;;7.65;4.45;;;;;;;15.98;28.39;100501.63;4357849;32;34240;-79
2022/04/13 09:36:30;;;;;;;7.30;4.22;;;;;;;15.71;29.00;100505.56;4369205;32;34457;-79
2022/04/13 09:39:16;;;;;;;7.97;4.70;;;;;;;16.19;27.78;100497.06;4358603;32;35046;-77
2022/04/13 09:42:05;;;;;;;8.07;4.65;;;;;;;15.75;28.26;100495.47;4359478;32;35449;-79
2022/04/13 09:44:58;;;;;;;9.60;4.57;;;;;;;16.26;29.65;100501.28;4361162;32;34163;-79
2022/04/13 09:47:47;;;;;;;7.03;4.12;;;;;;;16.60;28.84;100492.88;4360004;32;35639;-79
2022/04/13 09:50:34;;;;;;;10.20;4.40;;;;;;;17.08;28.20;100491.72;4362514;32;34395;-79
2022/04/13 09:53:21;;;;;;;10.93;4.95;;;;;;;17.09;28.50;100479.50;4349914;32;34882;-79
2022/04/13 09:56:16;;;;;;;10.63;5.10;;;;;;;17.11;30.13;100493.03;4371196;32;34426;-79
2022/04/13 09:59:06;;;;;;;10.07;5.20;;;;;;;17.34;27.50;100487.19;4360730;32;34671;-79
2022/04/13 10:01:52;;;;;;;10.73;5.20;;;;;;;17.19;27.45;100481.09;4349319;32;35028;-79
2022/04/13 10:04:39;;;;;;;9.05;4.75;;;;;;;17.30;27.78;100475.94;4361526;32;35654;-80
2022/04/13 10:07:25;;;;;;;9.00;4.70;;;;;;;17.69;27.32;100469.16;4375953;32;34947;-80
2022/04/13 10:10:30;;;;;;;9.60;4.72;;;;;;;17.81;28.11;100478.72;4362496;32;34658;-80
2022/04/13 10:13:31;;;;;;;10.50;5.32;;;;;;;17.91;27.18;100476.34;4383982;32;35536;-81
2022/04/13 10:16:17;;;;;;;10.60;5.32;;;;;;;18.42;27.03;100476.97;4372658;32;34445;-81
2022/04/13 10:19:04;;;;;;;8.00;4.70;;;;;;;18.81;25.77;100480.31;4364504;32;34640;-81
2022/04/13 10:21:52;;;;;;;9.00;5.20;;;;;;;18.52;27.27;100474.91;4360013;32;34708;-81
2022/04/13 10:24:39;;;;;;;11.82;5.05;;;;;;;18.94;26.67;100460.87;4365943;32;34979;-80
2022/04/13 10:27:27;;;;;;;8.23;4.87;;;;;;;18.94;26.62;100463.63;4371531;32;35173;-80
2022/04/13 10:30:13;;;;;;;10.23;5.32;;;;;;;19.08;25.18;100466.88;4369875;32;34059;-80
2022/04/13 10:33:02;;;;;;;11.60;5.30;;;;;;;19.03;25.82;100470.69;4347980;32;34607;-80
2022/04/13 10:35:49;;;;;;;8.20;4.43;;;;;;;19.55;25.32;100458.81;4360328;32;35020;-80
2022/04/13 10:38:35;;;;;;;8.68;4.93;;;;;;;18.27;26.12;100449.91;4360206;32;35298;-80
2022/04/13 10:41:21;;;;;;;9.00;5.05;;;;;;;18.97;25.47;100449.06;4361488;32;34223;-80
2022/04/13 10:44:08;;;;;;;8.98;5.75;;;;;;;19.27;25.37;100453.19;4384960;32;34635;-80
2022/04/13 10:46:58;;;;;;;9.77;5.43;;;;;;;19.26;25.37;100450.75;4356097;32;34655;-80
2022/04/13 10:50:01;;;;;;;10.20;5.37;;;;;;;19.67;24.53;100449.66;4369719;32;35736;-79
2022/04/13 10:52:47;;;;;;;9.77;5.60;;;;;;;19.90;25.28;100437.97;4360056;32;35056;-79
2022/04/13 10:55:34;;;;;;;8.93;4.80;;;;;;;19.71;24.45;100436.66;4367929;32;34216;-78
2022/04/13 10:58:28;;;;;;;10.80;5.78;;;;;;;20.32;24.02;100437.50;4358035;32;34911;-79
2022/04/13 11:01:17;;;;;;;9.18;4.78;;;;;;;19.83;23.11;100432.22;4358533;32;35647;-79
2022/04/13 11:04:05;;;;;;;9.80;5.40;;;;;;;20.11;23.44;100432.19;4358088;32;34681;-80
2022/04/13 11:06:52;;;;;;;9.55;5.35;;;;;;;20.49;23.99;100437.19;4363360;32;34384;-80
2022/04/13 11:09:40;;;;;;;9.23;5.15;;;;;;;20.60;24.04;100432.69;4348236;32;35848;-80
2022/04/13 11:12:27;;;;;;;10.85;5.57;;;;;;;20.49;23.39;100423.25;4359446;32;35494;-80
2022/04/13 11:15:13;;;;;;;11.95;5.57;;;;;;;20.44;24.33;100421.53;4357419;32;34855;-81
2022/04/13 11:18:07;;;;;;;9.63;5.12;;;;;;;20.04;22.90;100410.56;4359857;32;34773;-81
2022/04/13 11:21:06;;;;;;;10.60;5.68;;;;;;;20.09;24.00;100412.25;4369135;32;35617;-81
2022/04/13 11:23:54;;;;;;;10.32;5.60;;;;;;;20.96;22.34;100419.66;4366027;32;35136;-80
2022/04/13 11:26:41;;;;;;;10.57;5.85;;;;;;;20.64;22.90;100400.19;4376632;32;34073;-81
2022/04/13 11:29:35;;;;;;;11.12;5.93;;;;;;;20.11;22.49;100407.94;4368132;32;34453;-80
2022/04/13 11:32:25;;;;;;;11.38;6.47;;;;;;;20.55;23.06;100401.53;4358952;32;35996;-80
2022/04/13 11:35:25;;;;;;;10.60;5.35;;;;;;;20.94;22.41;100405.25;4374253;32;35653;-81
2022/04/13 11:38:11;;;;;;;9.82;5.87;;;;;;;21.04;23.04;100396.34;4367320;32;34218;-81
2022/04/13 11:41:05;;;;;;;10.88;5.95;;;;;;;21.28;22.70;100400.84;4348461;32;35168;-81
2022/04/13 11:43:52;;;;;;;14.27;6.68;;;;;;;20.99;22.29;100387.47;4346221;32;34893;-80
2022/04/13 11:46:39;;;;;;;9.98;6.53;;;;;;;21.68;22.89;100391.38;4378243;32;35834;-79
2022/04/13 11:49:31;;;;;;;12.82;6.82;;;;;;;22.19;20.69;100388.38;4367122;32;35382;-79
2022/04/13 11:52:43;;;;;;;10.25;5.35;;;;;;;22.60;20.87;100387.88;4360622;32;34413;-78
2022/04/13 11:55:39;;;;;;;11.23;6.93;;;;;;;21.74;22.08;100389.09;4366942;32;34999;-78
2022/04/13 11:58:29;;;;;;;12.40;6.72;;;;;;;22.90;19.91;100373.97;4359039;32;34664;-80
2022/04/13 12:01:22;;;;;;;12.45;6.30;;;;;;;20.81;21.82;100384.28;4359706;32;34269;-80
2022/04/13 12:04:08;;;;;;;12.57;6.18;;;;;;;22.33;21.26;100371.06;4355193;32;34778;-79
2022/04/13 12:06:55;;;;;;;10.23;6.60;;;;;;;22.56;21.81;100373.03;4351060;32;34556;-79
2022/04/13 12:09:43;;;;;;;12.10;6.37;;;;;;;22.57;20.29;100360.66;4369984;32;35460;-80
2022/04/13 12:12:29;;;;;;;11.52;6.32;;;;;;;23.11;21.87;100359.53;4369194;32;34212;-78
2022/04/13 12:15:15;;;;;;;11.43;6.35;;;;;;;23.26;21.76;100350.13;4361336;32;34605;-78
2022/04/13 12:18:07;;;;;;;10.55;6.70;;;;;;;22.79;20.88;100339.47;4363414;32;34624;-80
2022/04/13 12:21:06;;;;;;;15.95;6.72;;;;;;;22.17;22.49;100348.87;4347415;32;34113;-80
2022/04/13 12:23:53;;;;;;;12.37;6.05;;;;;;;23.00;21.89;100342.59;4352764;32;33787;-80
2022/04/13 12:26:41;;;;;;;11.65;7.18;;;;;;;22.52;21.26;100349.84;4360142;32;35729;-79
2022/04/13 12:29:29;;;;;;;13.00;6.22;;;;;;;22.62;21.37;100350.00;4368292;32;34448;-78
2022/04/13 12:32:19;;;;;;;11.40;5.85;;;;;;;22.63;20.42;100340.44;4356926;32;34816;-78
2022/04/13 12:35:05;;;;;;;10.38;6.80;;;;;;;22.26;21.43;100343.03;4352336;32;34713;-79
2022/04/13 12:37:55;;;;;;;12.10;6.28;;;;;;;20.96;22.20;100343.62;4356869;32;98086;-80
2022/04/13 12:40:42;;;;;;;10.23;6.05;;;;;;;18.48;25.52;100333.25;4375184;32;33559;-76
2022/04/13 12:43:28;;;;;;;9.20;5.45;;;;;;;19.60;24.70;100329.88;4360426;32;33195;-77
2022/04/13 12:46:16;;;;;;;15.20;7.28;;;;;;;20.45;23.77;100331.31;4358509;32;34043;-80
2022/04/13 12:49:04;;;;;;;12.00;6.43;;;;;;;20.47;27.76;100328.16;4354964;32;35639;-80
2022/04/13 12:51:55;;;;;;;10.00;5.57;;;;;;;20.25;22.73;100321.25;4344454;32;34890;-78
2022/04/13 12:54:42;;;;;;;10.05;6.18;;;;;;;20.50;22.94;100316.31;4358683;32;34626;-80
2022/04/13 12:57:29;;;;;;;12.77;6.40;;;;;;;21.60;22.46;100324.66;4359684;32;33673;-81